Time;durP1;ratioP1;P1;durP2;ratioP2;P2;SDS_P1;SDS_P2;PMS_P1;PMS_P2;Temp;Humidity;BMP_temperature;BMP_pressure;BME280_temperature;BME280_humidity;BME280_pressure;Samples;Min_cycle;Max_cycle;Signal;HPM_P1;HPM_P2
2024/02/03 00:01:52;;;;;;;7.97;7.17;;;;;;;;;;5035069;28;20452;-63
2024/02/03 00:04:19;;;;;;;7.27;6.67;;;;;;;;;;5035057;28;21004;-63
2024/02/03 00:06:47;;;;;;;7.00;6.30;;;;;;;;;;5034821;28;20526;-63
2024/02/03 00:09:13;;;;;;;7.97;6.57;;;;;;;;;;5035117;28;21027;-64
2024/02/03 00:11:40;;;;;;;6.23;5.70;;;;;;;;;;5035165;28;20445;-63
2024/02/03 00:14:07;;;;;;;7.10;6.17;;;;;;;;;;5034849;28;20452;-63
2024/02/03 00:16:35;;;;;;;7.30;6.57;;;;;;;;;;5034862;28;20540;-63
2024/02/03 00:19:03;;;;;;;7.47;6.60;;;;;;;;;;5034687;28;20446;-63
2024/02/03 00:21:30;;;;;;;7.80;6.60;;;;;;;;;;5034902;28;20445;-63
2024/02/03 00:23:57;;;;;;;6.87;6.17;;;;;;;;;;5035035;28;20543;-63
2024/02/03 00:26:24;;;;;;;6.47;5.87;;;;;;;;;;5034547;28;20504;-63
2024/02/03 00:28:54;;;;;;;6.83;6.23;;;;;;;;;;5034654;28;20540;-63
2024/02/03 00:31:21;;;;;;;6.13;5.60;;;;;;;;;;5034524;28;20477;-63
2024/02/03 00:33:47;;;;;;;6.10;5.60;;;;;;;;;;5034370;28;20556;-64
2024/02/03 00:36:22;;;;;;;7.60;5.93;;;;;;;;;;5034507;28;20452;-63
2024/02/03 00:38:49;;;;;;;6.37;5.77;;;;;;;;;;5034381;28;20516;-63
2024/02/03 00:41:16;;;;;;;8.23;6.13;;;;;;;;;;5034312;28;20455;-63
2024/02/03 00:43:43;;;;;;;6.03;5.53;;;;;;;;;;5034498;28;20878;-64
2024/02/03 00:46:11;;;;;;;6.20;5.60;;;;;;;;;;5034228;28;20884;-64
2024/02/03 00:48:38;;;;;;;6.20;5.40;;;;;;;;;;5034344;28;20952;-63
2024/02/03 00:51:09;;;;;;;7.37;6.40;;;;;;;;;;5034206;28;20441;-63
2024/02/03 00:53:38;;;;;;;7.43;6.10;;;;;;;;;;5034168;28;20885;-64
2024/02/03 00:56:05;;;;;;;6.40;5.67;;;;;;;;;;5034042;28;20532;-64
2024/02/03 00:58:32;;;;;;;7.23;6.53;;;;;;;;;;5033888;28;20568;-63
2024/02/03 01:00:59;;;;;;;7.10;6.40;;;;;;;;;;5033873;28;20944;-64
2024/02/03 01:03:26;;;;;;;6.60;6.00;;;;;;;;;;5033654;28;20477;-64
2024/02/03 01:05:53;;;;;;;7.63;6.20;;;;;;;;;;5034216;28;20540;-63
2024/02/03 01:08:20;;;;;;;6.73;6.13;;;;;;;;;;5033804;28;21021;-63
2024/02/03 01:10:48;;;;;;;7.20;6.50;;;;;;;;;;5033834;28;20898;-64
2024/02/03 01:13:15;;;;;;;7.10;6.40;;;;;;;;;;5033621;28;20451;-64
2024/02/03 01:15:42;;;;;;;7.20;5.90;;;;;;;;;;5033854;28;20797;-63
2024/02/03 01:18:09;;;;;;;6.73;6.10;;;;;;;;;;5033702;28;20487;-64
2024/02/03 01:20:36;;;;;;;6.90;6.20;;;;;;;;;;5033503;28;20481;-64
2024/02/03 01:23:03;;;;;;;6.97;6.27;;;;;;;;;;5033570;28;20536;-64
2024/02/03 01:25:30;;;;;;;7.07;6.47;;;;;;;;;;5033431;28;20548;-64
2024/02/03 01:27:58;;;;;;;8.17;6.80;;;;;;;;;;5033402;28;20484;-63
2024/02/03 01:30:25;;;;;;;6.27;5.63;;;;;;;;;;5033647;28;20481;-64
2024/02/03 01:32:52;;;;;;;7.17;6.47;;;;;;;;;;5033509;28;20511;-63
2024/02/03 01:35:19;;;;;;;7.90;6.60;;;;;;;;;;5033476;28;20445;-64
2024/02/03 01:37:46;;;;;;;6.40;5.80;;;;;;;;;;5033291;28;20848;-63
2024/02/03 01:40:14;;;;;;;6.23;5.63;;;;;;;;;;5033251;28;20481;-64
2024/02/03 01:42:41;;;;;;;6.57;5.90;;;;;;;;;;5033472;28;20980;-64
2024/02/03 01:45:12;;;;;;;6.43;5.77;;;;;;;;;;5033338;28;20456;-64
2024/02/03 01:47:39;;;;;;;6.53;5.93;;;;;;;;;;5033588;28;20496;-63
2024/02/03 01:50:07;;;;;;;6.03;5.53;;;;;;;;;;5033188;28;20884;-64
2024/02/03 01:52:34;;;;;;;6.70;6.10;;;;;;;;;;5033105;28;20528;-63
2024/02/03 01:55:01;;;;;;;6.53;5.93;;;;;;;;;;5033301;28;20528;-63
2024/02/03 01:57:29;;;;;;;7.17;6.47;;;;;;;;;;5033134;28;20906;-64
2024/02/03 01:59:56;;;;;;;6.03;5.43;;;;;;;;;;5033160;28;20538;-64
2024/02/03 02:02:24;;;;;;;7.10;5.67;;;;;;;;;;5033051;28;20477;-63
2024/02/03 02:04:51;;;;;;;6.50;5.90;;;;;;;;;;5032915;28;20444;-64
2024/02/03 02:07:20;;;;;;;6.33;5.73;;;;;;;;;;5033003;28;20532;-63
2024/02/03 02:09:48;;;;;;;6.70;6.10;;;;;;;;;;5032791;28;20455;-64
2024/02/03 02:12:15;;;;;;;7.30;6.43;;;;;;;;;;5033061;28;20945;-64
2024/02/03 02:14:42;;;;;;;6.50;5.80;;;;;;;;;;5032803;28;20628;-64
2024/02/03 02:17:08;;;;;;;7.73;6.90;;;;;;;;;;5036671;28;21029;-64
2024/02/03 02:19:37;;;;;;;6.40;5.80;;;;;;;;;;5036846;28;20944;-64
2024/02/03 02:22:05;;;;;;;7.70;5.97;;;;;;;;;;5036811;28;20477;-64
2024/02/03 02:24:32;;;;;;;6.73;5.77;;;;;;;;;;5037069;28;20445;-64
2024/02/03 02:26:59;;;;;;;6.03;5.50;;;;;;;;;;5036646;28;20469;-64
2024/02/03 02:29:26;;;;;;;6.63;5.97;;;;;;;;;;5036895;28;20456;-64
2024/02/03 02:31:53;;;;;;;7.20;5.50;;;;;;;;;;5036779;28;20453;-64
2024/02/03 02:34:20;;;;;;;8.10;6.90;;;;;;;;;;5036711;28;20583;-64
2024/02/03 02:36:47;;;;;;;6.30;5.70;;;;;;;;;;5036480;28;20453;-64
2024/02/03 02:39:15;;;;;;;5.77;5.27;;;;;;;;;;5036630;28;20578;-64
2024/02/03 02:41:42;;;;;;;6.27;5.67;;;;;;;;;;5036688;28;20449;-64
2024/02/03 02:44:09;;;;;;;6.70;5.87;;;;;;;;;;5036563;28;20529;-64
2024/02/03 02:46:36;;;;;;;7.67;6.17;;;;;;;;;;5036641;28;20445;-64
2024/02/03 02:49:07;;;;;;;9.83;6.30;;;;;;;;;;5036434;28;20528;-64
2024/02/03 02:51:34;;;;;;;5.50;5.00;;;;;;;;;;5036874;28;20444;-64
2024/02/03 02:54:01;;;;;;;6.97;6.27;;;;;;;;;;5036438;28;20503;-63
2024/02/03 02:56:29;;;;;;;6.07;5.47;;;;;;;;;;5036440;28;21035;-63
2024/02/03 02:58:56;;;;;;;7.73;6.40;;;;;;;;;;5036289;28;20491;-63
2024/02/03 03:01:23;;;;;;;9.73;6.63;;;;;;;;;;5036190;28;20533;-64
2024/02/03 03:03:52;;;;;;;8.37;7.57;;;;;;;;;;5036076;28;20459;-64
2024/02/03 03:06:19;;;;;;;6.70;6.10;;;;;;;;;;5036260;28;20536;-64
2024/02/03 03:08:46;;;;;;;7.80;7.00;;;;;;;;;;5036215;28;20449;-64
2024/02/03 03:11:13;;;;;;;8.73;6.47;;;;;;;;;;5036141;28;20455;-63
2024/02/03 03:13:41;;;;;;;8.17;6.90;;;;;;;;;;5036043;28;20453;-64
2024/02/03 03:16:08;;;;;;;7.87;6.90;;;;;;;;;;5035851;28;20480;-64
2024/02/03 03:18:35;;;;;;;7.07;6.37;;;;;;;;;;5035705;28;20481;-64
2024/02/03 03:21:02;;;;;;;9.50;7.87;;;;;;;;;;5036010;28;20451;-64
2024/02/03 03:23:29;;;;;;;7.90;7.20;;;;;;;;;;5035945;28;20535;-64
2024/02/03 03:25:56;;;;;;;9.03;8.03;;;;;;;;;;5035473;28;20473;-64
2024/02/03 03:28:23;;;;;;;8.90;8.10;;;;;;;;;;5035732;28;20449;-64
2024/02/03 03:30:52;;;;;;;9.67;8.77;;;;;;;;;;5035596;28;20832;-64
2024/02/03 03:33:19;;;;;;;9.90;8.40;;;;;;;;;;5035762;28;20531;-63
2024/02/03 03:35:46;;;;;;;9.63;7.43;;;;;;;;;;5035716;28;20452;-64
2024/02/03 03:38:13;;;;;;;9.80;8.90;;;;;;;;;;5035574;28;21026;-64
2024/02/03 03:40:40;;;;;;;10.40;7.93;;;;;;;;;;5035548;28;20536;-64
2024/02/03 03:43:07;;;;;;;8.37;7.57;;;;;;;;;;5035438;28;20455;-64
2024/02/03 03:45:34;;;;;;;10.43;9.20;;;;;;;;;;5035371;28;21020;-64
2024/02/03 03:48:03;;;;;;;10.13;8.80;;;;;;;;;;5035489;28;20448;-64
2024/02/03 03:50:30;;;;;;;9.13;8.00;;;;;;;;;;5035414;28;20480;-64
2024/02/03 03:52:57;;;;;;;8.90;7.80;;;;;;;;;;5035310;28;20445;-64
2024/02/03 03:55:23;;;;;;;8.43;7.63;;;;;;;;;;5035256;28;20528;-64
2024/02/03 03:57:50;;;;;;;8.77;7.60;;;;;;;;;;5035279;28;20484;-64
2024/02/03 04:00:18;;;;;;;9.80;8.23;;;;;;;;;;5035273;28;20451;-64
2024/02/03 04:02:46;;;;;;;10.60;8.63;;;;;;;;;;5035359;28;20477;-64
2024/02/03 04:05:14;;;;;;;13.67;8.80;;;;;;;;;;5035171;28;20544;-64
2024/02/03 04:07:41;;;;;;;10.67;8.47;;;;;;;;;;5034974;28;20461;-64
2024/02/03 04:10:08;;;;;;;10.93;9.70;;;;;;;;;;5034957;28;20449;-64
2024/02/03 04:12:35;;;;;;;10.50;9.00;;;;;;;;;;5034793;28;20507;-64
2024/02/03 04:15:02;;;;;;;10.90;8.60;;;;;;;;;;5034954;28;20900;-64
2024/02/03 04:17:29;;;;;;;11.80;9.30;;;;;;;;;;5034923;28;20817;-64
2024/02/03 04:19:56;;;;;;;11.60;10.13;;;;;;;;;;5034636;28;20487;-63
2024/02/03 04:22:24;;;;;;;10.30;8.97;;;;;;;;;;5034733;28;20856;-64
2024/02/03 04:24:53;;;;;;;10.93;9.83;;;;;;;;;;5034878;28;20536;-64
2024/02/03 04:27:20;;;;;;;10.40;8.87;;;;;;;;;;5034509;28;20503;-64
2024/02/03 04:29:47;;;;;;;10.70;9.60;;;;;;;;;;5034741;28;20448;-64
2024/02/03 04:32:14;;;;;;;11.50;9.13;;;;;;;;;;5034672;28;20441;-64
2024/02/03 04:34:41;;;;;;;11.03;9.27;;;;;;;;;;5034432;28;20448;-64
2024/02/03 04:37:09;;;;;;;11.53;9.67;;;;;;;;;;5034390;28;20971;-64
2024/02/03 04:39:37;;;;;;;8.50;7.70;;;;;;;;;;5033446;28;20481;-64
2024/02/03 04:42:04;;;;;;;10.13;8.27;;;;;;;;;;5034478;28;20459;-63
2024/02/03 04:44:31;;;;;;;10.73;9.63;;;;;;;;;;5034743;28;20532;-64
2024/02/03 04:46:58;;;;;;;14.33;9.80;;;;;;;;;;5034174;28;20529;-64
2024/02/03 04:49:25;;;;;;;11.07;9.97;;;;;;;;;;5034238;28;20472;-64
2024/02/03 04:51:52;;;;;;;10.00;8.97;;;;;;;;;;5034167;28;20542;-64
2024/02/03 04:54:19;;;;;;;9.60;8.70;;;;;;;;;;5033968;28;20453;-64
2024/02/03 04:56:48;;;;;;;10.57;9.00;;;;;;;;;;5034182;28;20540;-64
2024/02/03 04:59:15;;;;;;;11.47;9.60;;;;;;;;;;5033858;28;21092;-64
2024/02/03 05:01:41;;;;;;;10.63;9.20;;;;;;;;;;5034005;28;20471;-64
2024/02/03 05:04:08;;;;;;;10.50;9.40;;;;;;;;;;5033937;28;20531;-64
2024/02/03 05:06:35;;;;;;;9.13;8.33;;;;;;;;;;5033680;28;20445;-64
2024/02/03 05:09:03;;;;;;;10.83;8.93;;;;;;;;;;5034006;28;20563;-64
2024/02/03 05:11:30;;;;;;;11.80;9.77;;;;;;;;;;5033833;28;20782;-64
2024/02/03 05:13:58;;;;;;;10.20;9.20;;;;;;;;;;5033866;28;20856;-63
2024/02/03 05:16:26;;;;;;;13.30;9.27;;;;;;;;;;5033707;28;20909;-64
2024/02/03 05:18:53;;;;;;;11.00;8.60;;;;;;;;;;5033556;28;20504;-64
2024/02/03 05:21:19;;;;;;;10.10;8.63;;;;;;;;;;5033557;28;20536;-64
2024/02/03 05:23:46;;;;;;;9.73;8.83;;;;;;;;;;5033583;28;20540;-64
2024/02/03 05:26:13;;;;;;;10.60;7.93;;;;;;;;;;5033539;28;20473;-64
2024/02/03 05:28:40;;;;;;;9.47;8.33;;;;;;;;;;5033539;28;20544;-64
2024/02/03 05:31:09;;;;;;;10.97;9.30;;;;;;;;;;5033484;28;20527;-64
2024/02/03 05:33:36;;;;;;;13.80;9.37;;;;;;;;;;5033414;28;20442;-64
2024/02/03 05:36:03;;;;;;;10.23;7.90;;;;;;;;;;5033542;28;20502;-64
2024/02/03 05:38:29;;;;;;;9.17;8.07;;;;;;;;;;5033379;28;20556;-64
2024/02/03 05:40:55;;;;;;;9.07;7.60;;;;;;;;;;5033338;28;20499;-64
2024/02/03 05:43:22;;;;;;;10.60;8.70;;;;;;;;;;5033332;28;20817;-64
2024/02/03 05:45:49;;;;;;;11.30;8.07;;;;;;;;;;5033184;28;20532;-64
2024/02/03 05:48:18;;;;;;;9.67;8.67;;;;;;;;;;5033029;28;20445;-64
2024/02/03 05:50:45;;;;;;;12.50;8.40;;;;;;;;;;5033087;28;21008;-64
2024/02/03 05:53:12;;;;;;;10.83;8.07;;;;;;;;;;5033258;28;20488;-64
2024/02/03 05:55:38;;;;;;;8.43;7.37;;;;;;;;;;5033132;28;20532;-64
2024/02/03 05:58:05;;;;;;;9.37;8.37;;;;;;;;;;5033120;28;20528;-64
2024/02/03 06:00:32;;;;;;;8.90;7.40;;;;;;;;;;5033009;28;20485;-64
2024/02/03 06:02:59;;;;;;;10.10;8.40;;;;;;;;;;5032840;28;20449;-64
2024/02/03 06:05:28;;;;;;;10.60;8.93;;;;;;;;;;5033135;28;20540;-64
2024/02/03 06:07:55;;;;;;;14.93;8.40;;;;;;;;;;5032938;28;20544;-64
2024/02/03 06:10:21;;;;;;;9.13;8.10;;;;;;;;;;5032927;28;20531;-64
2024/02/03 06:12:48;;;;;;;8.43;7.63;;;;;;;;;;5032981;28;20445;-64
2024/02/03 06:15:15;;;;;;;9.57;7.87;;;;;;;;;;5032800;28;20545;-64
2024/02/03 06:17:43;;;;;;;11.07;10.00;;;;;;;;;;5032833;28;20444;-64
2024/02/03 06:20:10;;;;;;;10.83;8.30;;;;;;;;;;5032906;28;20795;-64
2024/02/03 06:22:39;;;;;;;9.50;7.93;;;;;;;;;;5033141;28;20540;-64
2024/02/03 06:25:06;;;;;;;11.77;9.40;;;;;;;;;;5032679;28;20456;-64
2024/02/03 06:27:33;;;;;;;10.07;8.40;;;;;;;;;;5032694;28;21027;-64
2024/02/03 06:30:00;;;;;;;9.60;8.60;;;;;;;;;;5032604;28;20533;-64
2024/02/03 06:32:27;;;;;;;9.73;8.73;;;;;;;;;;5032647;28;20455;-64
2024/02/03 06:34:54;;;;;;;9.40;8.50;;;;;;;;;;5032888;28;20544;-64
2024/02/03 06:37:21;;;;;;;8.20;7.40;;;;;;;;;;5032844;28;20504;-64
2024/02/03 06:39:49;;;;;;;10.03;8.07;;;;;;;;;;5032610;28;20477;-64
2024/02/03 06:42:16;;;;;;;8.90;8.00;;;;;;;;;;5032567;28;21004;-64
2024/02/03 06:44:43;;;;;;;8.03;6.77;;;;;;;;;;5032485;28;20455;-64
2024/02/03 06:47:11;;;;;;;7.17;6.47;;;;;;;;;;5032537;28;20449;-64
2024/02/03 06:49:38;;;;;;;7.57;6.87;;;;;;;;;;5032620;28;20446;-64
2024/02/03 06:52:06;;;;;;;7.83;7.03;;;;;;;;;;5032532;28;20477;-64
2024/02/03 06:54:33;;;;;;;7.77;6.83;;;;;;;;;;5032680;28;20877;-64
2024/02/03 06:57:01;;;;;;;6.53;5.83;;;;;;;;;;5032357;28;20552;-64
2024/02/03 06:59:28;;;;;;;7.30;6.60;;;;;;;;;;5032522;28;20576;-64
2024/02/03 07:01:55;;;;;;;8.77;6.40;;;;;;;;;;5034190;28;20559;-64
2024/02/03 07:04:22;;;;;;;7.60;6.90;;;;;;;;;;5036221;28;20444;-64
2024/02/03 07:06:49;;;;;;;7.30;6.60;;;;;;;;;;5036142;28;20537;-64
2024/02/03 07:09:16;;;;;;;6.87;6.27;;;;;;;;;;5036066;28;20911;-64
2024/02/03 07:11:43;;;;;;;9.70;7.03;;;;;;;;;;5035947;28;20510;-64
2024/02/03 07:14:11;;;;;;;8.20;7.50;;;;;;;;;;5036105;28;20537;-64
2024/02/03 07:16:38;;;;;;;7.43;6.73;;;;;;;;;;5036058;28;20441;-64
2024/02/03 07:19:05;;;;;;;7.77;6.53;;;;;;;;;;5035976;28;20998;-64
2024/02/03 07:21:32;;;;;;;6.73;6.03;;;;;;;;;;5035866;28;20481;-64
2024/02/03 07:23:59;;;;;;;8.13;7.40;;;;;;;;;;5035819;28;20879;-64
2024/02/03 07:26:26;;;;;;;7.00;6.30;;;;;;;;;;5035425;28;20473;-64
2024/02/03 07:28:53;;;;;;;7.90;7.10;;;;;;;;;;5035730;28;20502;-64
2024/02/03 07:31:28;;;;;;;7.57;6.77;;;;;;;;;;5035712;28;20552;-64
2024/02/03 07:33:54;;;;;;;7.83;7.03;;;;;;;;;;5035655;28;20452;-64
2024/02/03 07:36:22;;;;;;;7.30;6.40;;;;;;;;;;5035596;28;20544;-64
2024/02/03 07:38:49;;;;;;;7.60;6.80;;;;;;;;;;5035611;28;20944;-64
2024/02/03 07:41:16;;;;;;;8.57;7.67;;;;;;;;;;5035560;28;20481;-64
2024/02/03 07:43:43;;;;;;;9.53;7.20;;;;;;;;;;5035614;28;20491;-64
2024/02/03 07:46:10;;;;;;;8.50;7.27;;;;;;;;;;5035352;28;20801;-63
2024/02/03 07:48:38;;;;;;;7.37;6.60;;;;;;;;;;5035334;28;20484;-64
2024/02/03 07:51:07;;;;;;;7.87;6.70;;;;;;;;;;5035102;28;20442;-64
2024/02/03 07:53:34;;;;;;;8.97;7.17;;;;;;;;;;5035124;28;20798;-64
2024/02/03 07:56:01;;;;;;;7.10;6.40;;;;;;;;;;5035273;28;20540;-64
2024/02/03 07:58:28;;;;;;;6.60;6.00;;;;;;;;;;5035113;28;20532;-64
2024/02/03 08:00:55;;;;;;;7.67;6.87;;;;;;;;;;5035074;28;20492;-64
2024/02/03 08:03:22;;;;;;;6.77;6.13;;;;;;;;;;5035331;28;20446;-64
2024/02/03 08:05:50;;;;;;;8.47;6.73;;;;;;;;;;5034868;28;21008;-64
2024/02/03 08:08:17;;;;;;;7.70;6.90;;;;;;;;;;5035113;28;20540;-64
2024/02/03 08:10:44;;;;;;;7.00;6.40;;;;;;;;;;5035086;28;20532;-64
2024/02/03 08:13:11;;;;;;;7.47;6.70;;;;;;;;;;5033630;28;20963;-64
2024/02/03 08:15:38;;;;;;;6.80;6.10;;;;;;;;;;5034862;28;20532;-64
2024/02/03 08:18:05;;;;;;;6.73;6.03;;;;;;;;;;5034808;28;20532;-64
2024/02/03 08:20:32;;;;;;;7.40;6.40;;;;;;;;;;5034517;28;20487;-64
2024/02/03 08:23:00;;;;;;;6.07;5.47;;;;;;;;;;5034765;28;20445;-64
2024/02/03 08:25:28;;;;;;;6.03;5.53;;;;;;;;;;5034575;28;20572;-63
2024/02/03 08:27:55;;;;;;;6.93;6.23;;;;;;;;;;5034632;28;20457;-63
2024/02/03 08:30:22;;;;;;;6.03;5.07;;;;;;;;;;5034514;28;21020;-64
2024/02/03 08:32:49;;;;;;;6.80;6.20;;;;;;;;;;5034485;28;20541;-64
2024/02/03 08:35:16;;;;;;;6.40;5.40;;;;;;;;;;5034404;28;20442;-64
2024/02/03 08:37:44;;;;;;;6.40;5.80;;;;;;;;;;5034523;28;20430;-64
2024/02/03 08:40:17;;;;;;;5.70;5.10;;;;;;;;;;5034403;28;20575;-64
2024/02/03 08:42:44;;;;;;;5.83;5.30;;;;;;;;;;5034353;28;20519;-63
2024/02/03 08:45:11;;;;;;;5.47;4.97;;;;;;;;;;5034217;28;21074;-64
2024/02/03 08:47:38;;;;;;;6.03;5.43;;;;;;;;;;5034091;28;20582;-64
2024/02/03 08:50:06;;;;;;;6.03;5.47;;;;;;;;;;5034476;28;20441;-64
2024/02/03 08:52:33;;;;;;;5.30;4.77;;;;;;;;;;5034172;28;20558;-64
2024/02/03 08:55:00;;;;;;;5.30;4.90;;;;;;;;;;5034110;28;20885;-64
2024/02/03 08:57:29;;;;;;;5.63;5.00;;;;;;;;;;5034017;28;20442;-64
2024/02/03 08:59:55;;;;;;;5.60;5.10;;;;;;;;;;5033558;28;20976;-64
2024/02/03 09:02:22;;;;;;;5.20;4.80;;;;;;;;;;5033786;28;20477;-64
2024/02/03 09:04:49;;;;;;;4.50;4.10;;;;;;;;;;5033974;28;20477;-64
2024/02/03 09:07:17;;;;;;;5.00;4.50;;;;;;;;;;5033874;28;21018;-64
2024/02/03 09:09:44;;;;;;;5.73;5.17;;;;;;;;;;5033837;28;20507;-64
2024/02/03 09:12:11;;;;;;;5.73;5.23;;;;;;;;;;5033900;28;20441;-64
2024/02/03 09:14:39;;;;;;;5.13;4.63;;;;;;;;;;5033532;28;20876;-64
2024/02/03 09:17:06;;;;;;;5.70;4.83;;;;;;;;;;5033578;28;20449;-64
2024/02/03 09:19:33;;;;;;;5.37;4.87;;;;;;;;;;5033542;28;20453;-63
2024/02/03 09:21:59;;;;;;;4.60;4.20;;;;;;;;;;5033441;28;20492;-63
2024/02/03 09:24:26;;;;;;;5.00;4.60;;;;;;;;;;5033294;28;20457;-64
2024/02/03 09:26:53;;;;;;;4.93;4.53;;;;;;;;;;5033212;28;20864;-64
2024/02/03 09:29:20;;;;;;;14.43;12.87;;;;;;;;;;5033829;28;20528;-64
2024/02/03 09:31:49;;;;;;;3.77;3.40;;;;;;;;;;5033531;28;20963;-64
2024/02/03 09:34:16;;;;;;;5.37;4.97;;;;;;;;;;5033080;28;20451;-64
2024/02/03 09:36:42;;;;;;;8.33;6.60;;;;;;;;;;5033636;28;20447;-64
2024/02/03 09:39:09;;;;;;;8.23;7.27;;;;;;;;;;5033194;28;20875;-63
2024/02/03 09:41:37;;;;;;;5.40;4.90;;;;;;;;;;5033035;28;20480;-64
2024/02/03 09:44:04;;;;;;;4.63;4.23;;;;;;;;;;5033062;28;20575;-64
2024/02/03 09:46:31;;;;;;;4.23;3.93;;;;;;;;;;5033214;28;20858;-64
2024/02/03 09:49:00;;;;;;;5.17;4.00;;;;;;;;;;5032876;28;20449;-64
2024/02/03 09:51:27;;;;;;;3.73;3.43;;;;;;;;;;5033054;28;20451;-64
2024/02/03 09:53:54;;;;;;;3.73;3.43;;;;;;;;;;5033048;28;20485;-64
2024/02/03 09:56:21;;;;;;;3.37;3.17;;;;;;;;;;5032888;28;21003;-64
2024/02/03 09:58:48;;;;;;;4.47;4.17;;;;;;;;;;5033186;28;20480;-64
2024/02/03 10:01:15;;;;;;;4.00;3.60;;;;;;;;;;5032997;28;20516;-64
2024/02/03 10:03:46;;;;;;;3.90;3.60;;;;;;;;;;5032998;28;20532;-64
2024/02/03 10:06:14;;;;;;;3.03;2.83;;;;;;;;;;5033014;28;20449;-64
2024/02/03 10:08:50;;;;;;;3.60;3.30;;;;;;;;;;5032670;28;20449;-64
2024/02/03 10:11:18;;;;;;;3.57;3.30;;;;;;;;;;5033065;28;20459;-64
2024/02/03 10:13:45;;;;;;;4.37;3.87;;;;;;;;;;5033090;28;20449;-64
2024/02/03 10:16:12;;;;;;;3.23;3.03;;;;;;;;;;5032913;28;20540;-63
2024/02/03 10:18:39;;;;;;;2.97;2.77;;;;;;;;;;5032868;28;20532;-64
2024/02/03 10:21:06;;;;;;;4.77;3.47;;;;;;;;;;5032552;28;20842;-64
2024/02/03 10:23:34;;;;;;;3.13;2.93;;;;;;;;;;5032936;28;20529;-64
2024/02/03 10:26:02;;;;;;;3.50;3.20;;;;;;;;;;5032798;28;20473;-64
2024/02/03 10:28:29;;;;;;;3.00;2.80;;;;;;;;;;5032808;28;20536;-64
2024/02/03 10:30:56;;;;;;;2.73;2.53;;;;;;;;;;5033033;28;20445;-64
2024/02/03 10:33:23;;;;;;;3.43;3.13;;;;;;;;;;5032654;28;20449;-64
2024/02/03 10:35:50;;;;;;;3.50;3.30;;;;;;;;;;5032595;28;20928;-64
2024/02/03 10:38:17;;;;;;;3.53;3.23;;;;;;;;;;5036847;28;20536;-64
2024/02/03 10:40:46;;;;;;;4.67;3.97;;;;;;;;;;5036422;28;21004;-64
2024/02/03 10:43:19;;;;;;;3.20;3.00;;;;;;;;;;5036484;28;20948;-64
2024/02/03 10:45:49;;;;;;;5.33;3.50;;;;;;;;;;5036455;28;20443;-64
2024/02/03 10:48:19;;;;;;;3.10;2.90;;;;;;;;;;5036420;28;20802;-64
2024/02/03 10:50:48;;;;;;;3.13;2.93;;;;;;;;;;5036575;28;20445;-64
2024/02/03 10:53:19;;;;;;;3.33;3.07;;;;;;;;;;5036439;28;20533;-64
2024/02/03 10:55:54;;;;;;;3.23;3.03;;;;;;;;;;5036394;28;20445;-64
2024/02/03 10:58:22;;;;;;;3.97;3.67;;;;;;;;;;5036165;28;20445;-64
2024/02/03 11:00:51;;;;;;;4.13;3.83;;;;;;;;;;5035810;28;20813;-64
2024/02/03 11:03:18;;;;;;;2.70;2.60;;;;;;;;;;5036180;28;20532;-64
2024/02/03 11:05:45;;;;;;;2.90;2.70;;;;;;;;;;5036120;28;20449;-64
2024/02/03 11:08:12;;;;;;;2.73;2.53;;;;;;;;;;5036461;28;20451;-64
2024/02/03 11:10:40;;;;;;;3.40;3.20;;;;;;;;;;5035983;28;20813;-64
2024/02/03 11:13:18;;;;;;;2.67;2.50;;;;;;;;;;5035869;28;20836;-64
2024/02/03 11:15:45;;;;;;;2.90;2.70;;;;;;;;;;5036058;28;20531;-64
2024/02/03 11:18:14;;;;;;;3.33;2.67;;;;;;;;;;5035947;28;20473;-64
2024/02/03 11:20:41;;;;;;;2.90;2.70;;;;;;;;;;5035646;28;21058;-64
2024/02/03 11:23:12;;;;;;;2.63;2.50;;;;;;;;;;5035697;28;20449;-64
2024/02/03 11:25:39;;;;;;;3.00;2.80;;;;;;;;;;5035604;28;20495;-64
2024/02/03 11:28:06;;;;;;;3.30;3.00;;;;;;;;;;5035855;28;20528;-64
2024/02/03 11:30:35;;;;;;;2.80;2.60;;;;;;;;;;5035766;28;20453;-64
2024/02/03 11:33:02;;;;;;;3.23;2.93;;;;;;;;;;5035728;28;21194;-64
2024/02/03 11:35:29;;;;;;;3.23;3.03;;;;;;;;;;5035527;28;20539;-64
2024/02/03 11:38:05;;;;;;;2.67;2.30;;;;;;;;;;5035734;28;20451;-64
2024/02/03 11:40:32;;;;;;;2.93;2.73;;;;;;;;;;5035155;28;20495;-64
2024/02/03 11:42:59;;;;;;;2.53;2.40;;;;;;;;;;5035304;28;20537;-64
2024/02/03 11:45:29;;;;;;;2.77;2.67;;;;;;;;;;5035398;28;20476;-64
2024/02/03 11:47:58;;;;;;;3.63;2.27;;;;;;;;;;5035221;28;20794;-64
2024/02/03 11:50:25;;;;;;;2.83;2.63;;;;;;;;;;5035238;28;20445;-64
2024/02/03 11:52:53;;;;;;;2.87;2.67;;;;;;;;;;5035018;28;20504;-64
2024/02/03 11:55:19;;;;;;;3.00;2.80;;;;;;;;;;5034981;28;20957;-64
2024/02/03 11:57:46;;;;;;;3.67;3.00;;;;;;;;;;5035224;28;20452;-64
2024/02/03 12:00:14;;;;;;;2.70;2.50;;;;;;;;;;5035058;28;20535;-64
2024/02/03 12:02:41;;;;;;;2.87;2.67;;;;;;;;;;5034981;28;20450;-64
2024/02/03 12:05:11;;;;;;;3.27;3.07;;;;;;;;;;5035039;28;20571;-64
2024/02/03 12:07:38;;;;;;;2.60;2.40;;;;;;;;;;5034656;28;20452;-64
2024/02/03 12:10:05;;;;;;;3.27;3.07;;;;;;;;;;5035096;28;20805;-64
2024/02/03 12:12:34;;;;;;;2.80;2.60;;;;;;;;;;5035165;28;20542;-64
2024/02/03 12:15:02;;;;;;;3.60;3.30;;;;;;;;;;5034868;28;20503;-64
2024/02/03 12:17:29;;;;;;;3.10;2.90;;;;;;;;;;5034849;28;20540;-64
2024/02/03 12:19:57;;;;;;;2.90;2.70;;;;;;;;;;5034586;28;20456;-64
2024/02/03 12:22:25;;;;;;;3.13;2.93;;;;;;;;;;5034685;28;20996;-64
2024/02/03 12:24:53;;;;;;;3.00;2.80;;;;;;;;;;5034707;28;20471;-64
2024/02/03 12:27:21;;;;;;;3.10;2.60;;;;;;;;;;5034681;28;20477;-64
2024/02/03 12:29:49;;;;;;;7.77;7.10;;;;;;;;;;5034473;28;20941;-64
2024/02/03 12:32:16;;;;;;;3.57;3.30;;;;;;;;;;5034428;28;20449;-64
2024/02/03 12:34:43;;;;;;;4.37;4.00;;;;;;;;;;5034219;28;20456;-64
2024/02/03 12:37:09;;;;;;;2.73;2.53;;;;;;;;;;5034536;28;20532;-64
2024/02/03 12:39:38;;;;;;;2.90;2.70;;;;;;;;;;5034462;28;20540;-64
2024/02/03 12:42:07;;;;;;;3.20;3.00;;;;;;;;;;5034349;28;20492;-64
2024/02/03 12:44:34;;;;;;;3.60;2.77;;;;;;;;;;5034297;28;20465;-64
2024/02/03 12:47:01;;;;;;;3.17;2.97;;;;;;;;;;5034156;28;20449;-64
2024/02/03 12:49:28;;;;;;;3.30;3.10;;;;;;;;;;5034357;28;20529;-64
2024/02/03 12:51:55;;;;;;;4.03;3.57;;;;;;;;;;5034483;28;20445;-64
2024/02/03 12:54:21;;;;;;;5.97;2.93;;;;;;;;;;5034216;28;20528;-64
2024/02/03 12:56:50;;;;;;;3.23;3.03;;;;;;;;;;5034372;28;20441;-64
2024/02/03 12:59:17;;;;;;;3.93;3.43;;;;;;;;;;5033418;28;20536;-64
2024/02/03 13:01:44;;;;;;;3.63;3.33;;;;;;;;;;5033696;28;20473;-64
2024/02/03 13:04:12;;;;;;;3.87;3.57;;;;;;;;;;5034064;28;20551;-64
2024/02/03 13:06:39;;;;;;;3.27;2.97;;;;;;;;;;5034259;28;20449;-64
2024/02/03 13:09:07;;;;;;;3.80;3.50;;;;;;;;;;5034123;28;20452;-64
2024/02/03 13:11:34;;;;;;;3.57;3.30;;;;;;;;;;5033798;28;20456;-63
2024/02/03 13:14:02;;;;;;;4.10;3.80;;;;;;;;;;5033703;28;20445;-64
2024/02/03 13:16:30;;;;;;;5.53;3.50;;;;;;;;;;5033618;28;20854;-64
2024/02/03 13:18:57;;;;;;;4.17;3.77;;;;;;;;;;5033814;28;20451;-63
2024/02/03 13:21:25;;;;;;;3.37;3.17;;;;;;;;;;5033629;28;20480;-64
2024/02/03 13:23:53;;;;;;;4.10;3.80;;;;;;;;;;5033519;28;20476;-64
2024/02/03 13:26:21;;;;;;;3.73;3.43;;;;;;;;;;5033429;28;20469;-64
2024/02/03 13:28:48;;;;;;;3.47;3.17;;;;;;;;;;5033389;28;20451;-64
2024/02/03 13:31:17;;;;;;;2.90;2.60;;;;;;;;;;5033539;28;20540;-64
2024/02/03 13:33:44;;;;;;;3.33;3.10;;;;;;;;;;5033462;28;20535;-64
2024/02/03 13:36:11;;;;;;;3.67;3.37;;;;;;;;;;5033177;28;20457;-64
2024/02/03 13:38:37;;;;;;;2.87;2.70;;;;;;;;;;5033290;28;20806;-64
2024/02/03 13:41:08;;;;;;;3.87;3.57;;;;;;;;;;5033353;28;20909;-64
2024/02/03 13:43:35;;;;;;;3.33;3.13;;;;;;;;;;5033225;28;20445;-64
2024/02/03 13:46:02;;;;;;;3.20;3.00;;;;;;;;;;5033230;28;20453;-64
2024/02/03 13:48:30;;;;;;;4.37;3.97;;;;;;;;;;5033252;28;20448;-63
2024/02/03 13:50:58;;;;;;;3.17;2.97;;;;;;;;;;5033155;28;20449;-63
2024/02/03 13:53:25;;;;;;;3.87;3.57;;;;;;;;;;5032881;28;20523;-63
2024/02/03 13:55:52;;;;;;;4.20;3.90;;;;;;;;;;5032569;28;20507;-64
2024/02/03 13:58:19;;;;;;;3.23;3.03;;;;;;;;;;5033016;28;20451;-63
2024/02/03 14:00:46;;;;;;;4.70;4.20;;;;;;;;;;5032901;28;20455;-64
2024/02/03 14:03:13;;;;;;;3.37;3.17;;;;;;;;;;5032900;28;20845;-64
2024/02/03 14:05:41;;;;;;;3.27;3.07;;;;;;;;;;5032876;28;20540;-64
2024/02/03 14:08:08;;;;;;;2.97;2.77;;;;;;;;;;5032925;28;20445;-63
2024/02/03 14:10:35;;;;;;;3.97;3.57;;;;;;;;;;5032086;28;20449;-64
2024/02/03 14:13:03;;;;;;;3.43;3.23;;;;;;;;;;5032758;28;20538;-64
2024/02/03 14:15:29;;;;;;;2.97;2.77;;;;;;;;;;5032975;28;20456;-64
2024/02/03 14:17:57;;;;;;;3.63;3.43;;;;;;;;;;5032887;28;20536;-64
2024/02/03 14:20:24;;;;;;;3.10;2.90;;;;;;;;;;5032768;28;20499;-63
2024/02/03 14:22:53;;;;;;;2.70;2.50;;;;;;;;;;5032579;28;20984;-64
2024/02/03 14:25:20;;;;;;;3.10;2.90;;;;;;;;;;5032802;28;20560;-64
2024/02/03 14:27:47;;;;;;;3.50;3.30;;;;;;;;;;5032756;28;20580;-64
2024/02/03 14:30:14;;;;;;;3.90;3.60;;;;;;;;;;5032794;28;20456;-63
2024/02/03 14:32:40;;;;;;;5.37;4.87;;;;;;;;;;5032798;28;20471;-63
2024/02/03 14:35:08;;;;;;;5.17;4.67;;;;;;;;;;5032649;28;20451;-63
2024/02/03 14:37:35;;;;;;;2.80;2.60;;;;;;;;;;5032539;28;20564;-63
2024/02/03 14:40:04;;;;;;;3.57;3.37;;;;;;;;;;5032801;28;20504;-64
2024/02/03 14:42:31;;;;;;;3.70;3.40;;;;;;;;;;5032530;28;20481;-63